sensor_id;sensor_type;location;lat;lon;timestamp;P1;durP1;ratioP1;P2;durP2;ratioP2
4831;SDS011;2430;51.322;7.864;2023-05-07T00:01:17;6.97;;;4.57;;
4831;SDS011;2430;51.322;7.864;2023-05-07T00:03:43;6.00;;;4.13;;
4831;SDS011;2430;51.322;7.864;2023-05-07T00:06:10;6.87;;;4.37;;
4831;SDS011;2430;51.322;7.864;2023-05-07T00:08:37;10.80;;;4.80;;
4831;SDS011;2430;51.322;7.864;2023-05-07T00:11:04;7.20;;;4.93;;
4831;SDS011;2430;51.322;7.864;2023-05-07T00:13:31;7.13;;;4.70;;
4831;SDS011;2430;51.322;7.864;2023-05-07T00:16:00;7.10;;;4.43;;
4831;SDS011;2430;51.322;7.864;2023-05-07T00:18:26;4.77;;;4.17;;
4831;SDS011;2430;51.322;7.864;2023-05-07T00:20:52;9.10;;;4.30;;
4831;SDS011;2430;51.322;7.864;2023-05-07T00:23:19;13.47;;;5.03;;
4831;SDS011;2430;51.322;7.864;2023-05-07T00:25:45;5.60;;;4.70;;
4831;SDS011;2430;51.322;7.864;2023-05-07T00:28:11;5.67;;;4.00;;
4831;SDS011;2430;51.322;7.864;2023-05-07T00:30:39;5.23;;;4.73;;
4831;SDS011;2430;51.322;7.864;2023-05-07T00:33:05;6.33;;;4.80;;
4831;SDS011;2430;51.322;7.864;2023-05-07T00:35:31;6.27;;;4.43;;
4831;SDS011;2430;51.322;7.864;2023-05-07T00:37:58;5.63;;;4.60;;
4831;SDS011;2430;51.322;7.864;2023-05-07T00:40:24;6.90;;;3.90;;
4831;SDS011;2430;51.322;7.864;2023-05-07T00:42:50;7.57;;;4.80;;
4831;SDS011;2430;51.322;7.864;2023-05-07T00:45:23;6.93;;;4.50;;
4831;SDS011;2430;51.322;7.864;2023-05-07T00:47:53;6.93;;;4.80;;
4831;SDS011;2430;51.322;7.864;2023-05-07T00:50:19;5.37;;;4.70;;
4831;SDS011;2430;51.322;7.864;2023-05-07T00:52:46;8.20;;;4.90;;
4831;SDS011;2430;51.322;7.864;2023-05-07T00:55:12;5.30;;;4.47;;
4831;SDS011;2430;51.322;7.864;2023-05-07T00:57:40;5.50;;;4.30;;
4831;SDS011;2430;51.322;7.864;2023-05-07T01:00:07;4.97;;;4.47;;
4831;SDS011;2430;51.322;7.864;2023-05-07T01:02:33;10.40;;;4.50;;
4831;SDS011;2430;51.322;7.864;2023-05-07T01:05:02;5.07;;;4.57;;
4831;SDS011;2430;51.322;7.864;2023-05-07T01:07:29;4.70;;;4.30;;
4831;SDS011;2430;51.322;7.864;2023-05-07T01:09:55;4.03;;;3.73;;
4831;SDS011;2430;51.322;7.864;2023-05-07T01:12:22;4.57;;;4.00;;
4831;SDS011;2430;51.322;7.864;2023-05-07T01:14:49;5.97;;;4.10;;
4831;SDS011;2430;51.322;7.864;2023-05-07T01:17:16;5.53;;;4.50;;
4831;SDS011;2430;51.322;7.864;2023-05-07T01:19:42;5.67;;;4.00;;
4831;SDS011;2430;51.322;7.864;2023-05-07T01:22:10;7.13;;;4.70;;
4831;SDS011;2430;51.322;7.864;2023-05-07T01:24:38;4.87;;;4.33;;
4831;SDS011;2430;51.322;7.864;2023-05-07T01:27:05;5.10;;;4.23;;
4831;SDS011;2430;51.322;7.864;2023-05-07T01:29:31;5.13;;;4.63;;
4831;SDS011;2430;51.322;7.864;2023-05-07T01:31:58;5.13;;;4.30;;
4831;SDS011;2430;51.322;7.864;2023-05-07T01:34:25;5.67;;;4.70;;
4831;SDS011;2430;51.322;7.864;2023-05-07T01:36:53;6.07;;;4.60;;
4831;SDS011;2430;51.322;7.864;2023-05-07T01:39:20;6.83;;;4.77;;
4831;SDS011;2430;51.322;7.864;2023-05-07T01:41:49;8.30;;;4.87;;
4831;SDS011;2430;51.322;7.864;2023-05-07T01:44:15;5.00;;;4.50;;
4831;SDS011;2430;51.322;7.864;2023-05-07T01:46:42;4.20;;;3.80;;
4831;SDS011;2430;51.322;7.864;2023-05-07T01:49:08;7.67;;;4.57;;
4831;SDS011;2430;51.322;7.864;2023-05-07T01:51:35;6.53;;;4.00;;
4831;SDS011;2430;51.322;7.864;2023-05-07T01:54:02;5.10;;;4.03;;
4831;SDS011;2430;51.322;7.864;2023-05-07T01:56:28;6.40;;;4.20;;
4831;SDS011;2430;51.322;7.864;2023-05-07T01:58:56;10.30;;;4.37;;
4831;SDS011;2430;51.322;7.864;2023-05-07T02:01:22;4.97;;;4.47;;
4831;SDS011;2430;51.322;7.864;2023-05-07T02:03:49;4.87;;;4.30;;
4831;SDS011;2430;51.322;7.864;2023-05-07T02:06:15;4.27;;;3.87;;
4831;SDS011;2430;51.322;7.864;2023-05-07T02:08:41;4.37;;;3.97;;
4831;SDS011;2430;51.322;7.864;2023-05-07T02:11:08;4.67;;;4.27;;
4831;SDS011;2430;51.322;7.864;2023-05-07T02:13:34;6.00;;;4.30;;
4831;SDS011;2430;51.322;7.864;2023-05-07T02:16:02;4.47;;;3.93;;
4831;SDS011;2430;51.322;7.864;2023-05-07T02:18:28;4.83;;;4.23;;
4831;SDS011;2430;51.322;7.864;2023-05-07T02:20:55;7.57;;;4.80;;
4831;SDS011;2430;51.322;7.864;2023-05-07T02:23:21;4.90;;;4.50;;
4831;SDS011;2430;51.322;7.864;2023-05-07T02:25:48;5.77;;;5.17;;
4831;SDS011;2430;51.322;7.864;2023-05-07T02:28:14;6.63;;;5.23;;
4831;SDS011;2430;51.322;7.864;2023-05-07T02:30:40;6.30;;;5.30;;
4831;SDS011;2430;51.322;7.864;2023-05-07T02:33:08;6.27;;;4.60;;
4831;SDS011;2430;51.322;7.864;2023-05-07T02:35:34;5.03;;;4.53;;
4831;SDS011;2430;51.322;7.864;2023-05-07T02:38:01;4.80;;;4.17;;
4831;SDS011;2430;51.322;7.864;2023-05-07T02:40:27;5.90;;;5.07;;
4831;SDS011;2430;51.322;7.864;2023-05-07T02:42:53;8.27;;;5.53;;
4831;SDS011;2430;51.322;7.864;2023-05-07T02:45:19;4.97;;;4.20;;
4831;SDS011;2430;51.322;7.864;2023-05-07T02:47:46;5.50;;;4.93;;
4831;SDS011;2430;51.322;7.864;2023-05-07T02:50:13;6.30;;;5.30;;
4831;SDS011;2430;51.322;7.864;2023-05-07T02:52:40;5.97;;;4.67;;
4831;SDS011;2430;51.322;7.864;2023-05-07T02:55:06;8.37;;;5.40;;
4831;SDS011;2430;51.322;7.864;2023-05-07T02:57:33;6.57;;;4.20;;
4831;SDS011;2430;51.322;7.864;2023-05-07T02:59:59;6.23;;;4.73;;
4831;SDS011;2430;51.322;7.864;2023-05-07T03:02:25;5.17;;;4.63;;
4831;SDS011;2430;51.322;7.864;2023-05-07T03:04:52;5.90;;;4.20;;
4831;SDS011;2430;51.322;7.864;2023-05-07T03:07:19;4.57;;;4.17;;
4831;SDS011;2430;51.322;7.864;2023-05-07T03:09:46;5.80;;;4.27;;
4831;SDS011;2430;51.322;7.864;2023-05-07T03:12:12;7.27;;;4.60;;
4831;SDS011;2430;51.322;7.864;2023-05-07T03:14:38;4.87;;;4.37;;
4831;SDS011;2430;51.322;7.864;2023-05-07T03:17:05;9.80;;;4.30;;
4831;SDS011;2430;51.322;7.864;2023-05-07T03:19:31;7.07;;;4.10;;
4831;SDS011;2430;51.322;7.864;2023-05-07T03:21:57;5.40;;;4.30;;
4831;SDS011;2430;51.322;7.864;2023-05-07T03:24:25;5.17;;;4.63;;
4831;SDS011;2430;51.322;7.864;2023-05-07T03:26:51;5.70;;;3.93;;
4831;SDS011;2430;51.322;7.864;2023-05-07T03:29:18;7.53;;;4.63;;
4831;SDS011;2430;51.322;7.864;2023-05-07T03:31:44;7.53;;;4.50;;
4831;SDS011;2430;51.322;7.864;2023-05-07T03:34:11;4.13;;;3.73;;
4831;SDS011;2430;51.322;7.864;2023-05-07T03:36:37;6.70;;;4.77;;
4831;SDS011;2430;51.322;7.864;2023-05-07T03:39:03;6.40;;;4.73;;
4831;SDS011;2430;51.322;7.864;2023-05-07T03:41:31;6.57;;;5.10;;
4831;SDS011;2430;51.322;7.864;2023-05-07T03:43:58;5.10;;;4.60;;
4831;SDS011;2430;51.322;7.864;2023-05-07T03:46:24;7.63;;;4.77;;
4831;SDS011;2430;51.322;7.864;2023-05-07T03:48:51;9.37;;;5.70;;
4831;SDS011;2430;51.322;7.864;2023-05-07T03:51:17;6.20;;;5.60;;
4831;SDS011;2430;51.322;7.864;2023-05-07T03:53:43;6.00;;;5.40;;
4831;SDS011;2430;51.322;7.864;2023-05-07T03:56:10;5.63;;;5.10;;
4831;SDS011;2430;51.322;7.864;2023-05-07T03:58:37;10.40;;;5.33;;
4831;SDS011;2430;51.322;7.864;2023-05-07T04:01:04;5.33;;;4.20;;
4831;SDS011;2430;51.322;7.864;2023-05-07T04:03:30;5.20;;;4.60;;
4831;SDS011;2430;51.322;7.864;2023-05-07T04:05:56;6.37;;;5.17;;
4831;SDS011;2430;51.322;7.864;2023-05-07T04:08:22;6.13;;;5.50;;
4831;SDS011;2430;51.322;7.864;2023-05-07T04:10:54;6.77;;;5.47;;
4831;SDS011;2430;51.322;7.864;2023-05-07T04:13:20;6.63;;;5.00;;
4831;SDS011;2430;51.322;7.864;2023-05-07T04:15:48;5.17;;;4.53;;
4831;SDS011;2430;51.322;7.864;2023-05-07T04:18:14;7.90;;;6.00;;
4831;SDS011;2430;51.322;7.864;2023-05-07T04:20:41;11.30;;;6.67;;
4831;SDS011;2430;51.322;7.864;2023-05-07T04:23:07;8.50;;;6.70;;
4831;SDS011;2430;51.322;7.864;2023-05-07T04:25:33;8.20;;;6.50;;
4831;SDS011;2430;51.322;7.864;2023-05-07T04:28:00;4.97;;;4.50;;
4831;SDS011;2430;51.322;7.864;2023-05-07T04:30:26;6.93;;;4.60;;
4831;SDS011;2430;51.322;7.864;2023-05-07T04:32:54;3.40;;;3.10;;
4831;SDS011;2430;51.322;7.864;2023-05-07T04:35:21;4.03;;;3.63;;
4831;SDS011;2430;51.322;7.864;2023-05-07T04:37:47;8.30;;;3.33;;
4831;SDS011;2430;51.322;7.864;2023-05-07T04:40:13;3.80;;;3.50;;
4831;SDS011;2430;51.322;7.864;2023-05-07T04:42:40;5.80;;;3.90;;
4831;SDS011;2430;51.322;7.864;2023-05-07T04:45:06;4.00;;;3.70;;
4831;SDS011;2430;51.322;7.864;2023-05-07T04:47:33;5.03;;;4.30;;
4831;SDS011;2430;51.322;7.864;2023-05-07T04:50:01;4.70;;;3.63;;
4831;SDS011;2430;51.322;7.864;2023-05-07T04:52:27;4.23;;;3.83;;
4831;SDS011;2430;51.322;7.864;2023-05-07T04:54:53;4.57;;;4.00;;
4831;SDS011;2430;51.322;7.864;2023-05-07T04:57:20;5.53;;;3.80;;
4831;SDS011;2430;51.322;7.864;2023-05-07T04:59:46;3.87;;;3.57;;
4831;SDS011;2430;51.322;7.864;2023-05-07T05:02:12;4.90;;;4.40;;
4831;SDS011;2430;51.322;7.864;2023-05-07T05:04:38;6.10;;;4.10;;
4831;SDS011;2430;51.322;7.864;2023-05-07T05:07:06;3.77;;;3.47;;
4831;SDS011;2430;51.322;7.864;2023-05-07T05:09:32;4.17;;;3.80;;
4831;SDS011;2430;51.322;7.864;2023-05-07T05:11:59;4.80;;;3.70;;
4831;SDS011;2430;51.322;7.864;2023-05-07T05:14:25;6.37;;;4.23;;
4831;SDS011;2430;51.322;7.864;2023-05-07T05:16:51;5.33;;;3.80;;
4831;SDS011;2430;51.322;7.864;2023-05-07T05:19:18;4.27;;;3.87;;
4831;SDS011;2430;51.322;7.864;2023-05-07T05:21:44;4.40;;;4.00;;
4831;SDS011;2430;51.322;7.864;2023-05-07T05:24:12;4.23;;;3.83;;
4831;SDS011;2430;51.322;7.864;2023-05-07T05:26:38;4.07;;;3.73;;
4831;SDS011;2430;51.322;7.864;2023-05-07T05:29:04;4.53;;;3.80;;
4831;SDS011;2430;51.322;7.864;2023-05-07T05:31:31;4.40;;;3.70;;
4831;SDS011;2430;51.322;7.864;2023-05-07T05:33:58;4.53;;;3.70;;
4831;SDS011;2430;51.322;7.864;2023-05-07T05:36:25;4.20;;;3.90;;
4831;SDS011;2430;51.322;7.864;2023-05-07T05:38:51;3.70;;;3.40;;
4831;SDS011;2430;51.322;7.864;2023-05-07T05:41:19;4.57;;;3.87;;
4831;SDS011;2430;51.322;7.864;2023-05-07T05:43:45;5.20;;;3.90;;
4831;SDS011;2430;51.322;7.864;2023-05-07T05:46:12;3.50;;;3.20;;
4831;SDS011;2430;51.322;7.864;2023-05-07T05:48:38;4.60;;;3.60;;
4831;SDS011;2430;51.322;7.864;2023-05-07T05:51:04;4.37;;;3.53;;
4831;SDS011;2430;51.322;7.864;2023-05-07T05:53:31;3.50;;;3.20;;
4831;SDS011;2430;51.322;7.864;2023-05-07T05:55:57;4.60;;;3.20;;
4831;SDS011;2430;51.322;7.864;2023-05-07T05:58:24;3.43;;;3.13;;
4831;SDS011;2430;51.322;7.864;2023-05-07T06:00:51;2.93;;;2.60;;
4831;SDS011;2430;51.322;7.864;2023-05-07T06:03:18;3.47;;;2.47;;
4831;SDS011;2430;51.322;7.864;2023-05-07T06:05:44;3.77;;;3.20;;
4831;SDS011;2430;51.322;7.864;2023-05-07T06:08:10;5.40;;;3.00;;
4831;SDS011;2430;51.322;7.864;2023-05-07T06:10:37;3.13;;;2.83;;
4831;SDS011;2430;51.322;7.864;2023-05-07T06:13:03;5.63;;;2.93;;
4831;SDS011;2430;51.322;7.864;2023-05-07T06:15:31;2.90;;;2.40;;
4831;SDS011;2430;51.322;7.864;2023-05-07T06:17:57;5.10;;;2.60;;
4831;SDS011;2430;51.322;7.864;2023-05-07T06:20:23;3.60;;;3.27;;
4831;SDS011;2430;51.322;7.864;2023-05-07T06:22:49;5.73;;;3.20;;
4831;SDS011;2430;51.322;7.864;2023-05-07T06:25:16;8.47;;;2.77;;
4831;SDS011;2430;51.322;7.864;2023-05-07T06:27:42;7.17;;;3.13;;
4831;SDS011;2430;51.322;7.864;2023-05-07T06:30:09;3.23;;;2.63;;
4831;SDS011;2430;51.322;7.864;2023-05-07T06:32:37;2.90;;;2.60;;
4831;SDS011;2430;51.322;7.864;2023-05-07T06:35:03;2.63;;;2.43;;
4831;SDS011;2430;51.322;7.864;2023-05-07T06:37:30;4.80;;;2.60;;
4831;SDS011;2430;51.322;7.864;2023-05-07T06:39:56;3.00;;;2.70;;
4831;SDS011;2430;51.322;7.864;2023-05-07T06:42:22;3.37;;;2.60;;
4831;SDS011;2430;51.322;7.864;2023-05-07T06:44:48;11.50;;;2.83;;
4831;SDS011;2430;51.322;7.864;2023-05-07T06:47:15;2.90;;;2.60;;
4831;SDS011;2430;51.322;7.864;2023-05-07T06:49:42;2.47;;;2.27;;
4831;SDS011;2430;51.322;7.864;2023-05-07T06:52:09;3.93;;;2.63;;
4831;SDS011;2430;51.322;7.864;2023-05-07T06:54:35;3.63;;;2.77;;
4831;SDS011;2430;51.322;7.864;2023-05-07T06:57:02;2.90;;;2.60;;
4831;SDS011;2430;51.322;7.864;2023-05-07T06:59:28;5.50;;;2.73;;
4831;SDS011;2430;51.322;7.864;2023-05-07T07:01:54;2.63;;;2.00;;
4831;SDS011;2430;51.322;7.864;2023-05-07T07:04:21;2.20;;;1.70;;
4831;SDS011;2430;51.322;7.864;2023-05-07T07:06:49;2.23;;;2.03;;
4831;SDS011;2430;51.322;7.864;2023-05-07T07:09:15;3.00;;;2.70;;
4831;SDS011;2430;51.322;7.864;2023-05-07T07:11:41;5.83;;;2.43;;
4831;SDS011;2430;51.322;7.864;2023-05-07T07:14:08;2.53;;;2.30;;
4831;SDS011;2430;51.322;7.864;2023-05-07T07:16:34;2.93;;;2.23;;
4831;SDS011;2430;51.322;7.864;2023-05-07T07:19:01;2.70;;;2.37;;
4831;SDS011;2430;51.322;7.864;2023-05-07T07:21:27;8.17;;;2.00;;
4831;SDS011;2430;51.322;7.864;2023-05-07T07:23:55;3.37;;;2.03;;
4831;SDS011;2430;51.322;7.864;2023-05-07T07:26:21;2.67;;;2.30;;
4831;SDS011;2430;51.322;7.864;2023-05-07T07:28:47;4.83;;;2.47;;
4831;SDS011;2430;51.322;7.864;2023-05-07T07:31:13;3.17;;;2.10;;
4831;SDS011;2430;51.322;7.864;2023-05-07T07:33:40;2.37;;;2.10;;
4831;SDS011;2430;51.322;7.864;2023-05-07T07:36:07;7.10;;;2.57;;
4831;SDS011;2430;51.322;7.864;2023-05-07T07:38:33;4.67;;;2.60;;
4831;SDS011;2430;51.322;7.864;2023-05-07T07:41:01;2.83;;;2.33;;
4831;SDS011;2430;51.322;7.864;2023-05-07T07:43:27;2.57;;;2.00;;
4831;SDS011;2430;51.322;7.864;2023-05-07T07:45:54;2.20;;;2.03;;
4831;SDS011;2430;51.322;7.864;2023-05-07T07:48:20;3.60;;;2.30;;
4831;SDS011;2430;51.322;7.864;2023-05-07T07:50:48;2.97;;;2.60;;
4831;SDS011;2430;51.322;7.864;2023-05-07T07:53:14;4.33;;;2.40;;
4831;SDS011;2430;51.322;7.864;2023-05-07T07:55:41;3.80;;;2.10;;
4831;SDS011;2430;51.322;7.864;2023-05-07T07:58:08;3.90;;;2.17;;
4831;SDS011;2430;51.322;7.864;2023-05-07T08:00:34;2.40;;;2.20;;
4831;SDS011;2430;51.322;7.864;2023-05-07T08:03:01;6.23;;;2.20;;
4831;SDS011;2430;51.322;7.864;2023-05-07T08:05:28;10.90;;;2.73;;
4831;SDS011;2430;51.322;7.864;2023-05-07T08:07:54;4.23;;;2.10;;
4831;SDS011;2430;51.322;7.864;2023-05-07T08:10:21;3.77;;;2.13;;
4831;SDS011;2430;51.322;7.864;2023-05-07T08:12:47;3.57;;;1.70;;
4831;SDS011;2430;51.322;7.864;2023-05-07T08:15:15;2.93;;;2.20;;
4831;SDS011;2430;51.322;7.864;2023-05-07T08:17:41;4.03;;;1.90;;
4831;SDS011;2430;51.322;7.864;2023-05-07T08:20:08;3.33;;;2.10;;
4831;SDS011;2430;51.322;7.864;2023-05-07T08:22:35;3.20;;;1.63;;
4831;SDS011;2430;51.322;7.864;2023-05-07T08:25:01;2.70;;;2.00;;
4831;SDS011;2430;51.322;7.864;2023-05-07T08:27:27;1.93;;;1.73;;
4831;SDS011;2430;51.322;7.864;2023-05-07T08:29:54;1.70;;;1.40;;
4831;SDS011;2430;51.322;7.864;2023-05-07T08:32:21;2.87;;;1.90;;
4831;SDS011;2430;51.322;7.864;2023-05-07T08:34:48;2.20;;;1.70;;
4831;SDS011;2430;51.322;7.864;2023-05-07T08:37:14;3.00;;;1.73;;
4831;SDS011;2430;51.322;7.864;2023-05-07T08:39:40;2.30;;;1.83;;
4831;SDS011;2430;51.322;7.864;2023-05-07T08:42:07;3.80;;;1.73;;
4831;SDS011;2430;51.322;7.864;2023-05-07T08:44:34;3.23;;;1.93;;
4831;SDS011;2430;51.322;7.864;2023-05-07T08:47:01;4.00;;;2.00;;
4831;SDS011;2430;51.322;7.864;2023-05-07T08:49:28;1.70;;;1.60;;
4831;SDS011;2430;51.322;7.864;2023-05-07T08:51:55;3.63;;;1.67;;
4831;SDS011;2430;51.322;7.864;2023-05-07T08:54:21;2.13;;;1.50;;
4831;SDS011;2430;51.322;7.864;2023-05-07T08:56:48;1.87;;;1.40;;
4831;SDS011;2430;51.322;7.864;2023-05-07T08:59:14;3.00;;;1.70;;
4831;SDS011;2430;51.322;7.864;2023-05-07T09:01:41;2.20;;;1.40;;
4831;SDS011;2430;51.322;7.864;2023-05-07T09:04:07;1.67;;;1.50;;
4831;SDS011;2430;51.322;7.864;2023-05-07T09:06:35;1.97;;;1.10;;
4831;SDS011;2430;51.322;7.864;2023-05-07T09:09:03;3.20;;;1.30;;
4831;SDS011;2430;51.322;7.864;2023-05-07T09:11:30;2.07;;;1.30;;
4831;SDS011;2430;51.322;7.864;2023-05-07T09:13:56;1.80;;;1.57;;
4831;SDS011;2430;51.322;7.864;2023-05-07T09:16:26;2.60;;;1.63;;
4831;SDS011;2430;51.322;7.864;2023-05-07T09:18:52;2.33;;;1.47;;
4831;SDS011;2430;51.322;7.864;2023-05-07T09:21:19;3.07;;;1.50;;
4831;SDS011;2430;51.322;7.864;2023-05-07T09:23:49;3.70;;;1.30;;
4831;SDS011;2430;51.322;7.864;2023-05-07T09:26:16;1.73;;;1.50;;
4831;SDS011;2430;51.322;7.864;2023-05-07T09:28:42;2.20;;;1.23;;
4831;SDS011;2430;51.322;7.864;2023-05-07T09:31:08;2.83;;;1.70;;
4831;SDS011;2430;51.322;7.864;2023-05-07T09:33:35;1.10;;;1.00;;
4831;SDS011;2430;51.322;7.864;2023-05-07T09:36:02;2.97;;;1.10;;
4831;SDS011;2430;51.322;7.864;2023-05-07T09:38:28;1.60;;;1.17;;
4831;SDS011;2430;51.322;7.864;2023-05-07T09:41:05;3.90;;;1.20;;
4831;SDS011;2430;51.322;7.864;2023-05-07T09:43:32;1.50;;;1.33;;
4831;SDS011;2430;51.322;7.864;2023-05-07T09:45:59;4.50;;;1.47;;
4831;SDS011;2430;51.322;7.864;2023-05-07T09:48:27;3.40;;;1.30;;
4831;SDS011;2430;51.322;7.864;2023-05-07T09:50:55;3.47;;;1.57;;
4831;SDS011;2430;51.322;7.864;2023-05-07T09:53:23;1.30;;;1.20;;
4831;SDS011;2430;51.322;7.864;2023-05-07T09:55:49;1.80;;;1.20;;
4831;SDS011;2430;51.322;7.864;2023-05-07T09:58:18;2.83;;;1.37;;
4831;SDS011;2430;51.322;7.864;2023-05-07T10:00:44;2.70;;;1.37;;
4831;SDS011;2430;51.322;7.864;2023-05-07T10:03:11;4.23;;;1.47;;
4831;SDS011;2430;51.322;7.864;2023-05-07T10:05:39;7.13;;;1.40;;
4831;SDS011;2430;51.322;7.864;2023-05-07T10:08:05;2.00;;;1.30;;
4831;SDS011;2430;51.322;7.864;2023-05-07T10:10:32;1.57;;;1.20;;
4831;SDS011;2430;51.322;7.864;2023-05-07T10:12:59;3.10;;;1.10;;
4831;SDS011;2430;51.322;7.864;2023-05-07T10:15:27;3.83;;;1.33;;
4831;SDS011;2430;51.322;7.864;2023-05-07T10:17:55;4.40;;;1.50;;
4831;SDS011;2430;51.322;7.864;2023-05-07T10:20:21;1.20;;;1.10;;
4831;SDS011;2430;51.322;7.864;2023-05-07T10:22:48;1.47;;;1.20;;
4831;SDS011;2430;51.322;7.864;2023-05-07T10:25:16;3.50;;;1.67;;
4831;SDS011;2430;51.322;7.864;2023-05-07T10:27:43;2.10;;;1.40;;
4831;SDS011;2430;51.322;7.864;2023-05-07T10:30:13;1.60;;;1.20;;
4831;SDS011;2430;51.322;7.864;2023-05-07T10:32:43;2.43;;;1.20;;
4831;SDS011;2430;51.322;7.864;2023-05-07T10:35:13;1.97;;;1.40;;
4831;SDS011;2430;51.322;7.864;2023-05-07T10:37:40;1.30;;;1.10;;
4831;SDS011;2430;51.322;7.864;2023-05-07T10:40:07;1.37;;;1.17;;
4831;SDS011;2430;51.322;7.864;2023-05-07T10:42:34;3.40;;;1.20;;
4831;SDS011;2430;51.322;7.864;2023-05-07T10:45:11;1.17;;;1.07;;
4831;SDS011;2430;51.322;7.864;2023-05-07T10:47:45;6.30;;;1.30;;
4831;SDS011;2430;51.322;7.864;2023-05-07T10:50:31;1.53;;;1.30;;
4831;SDS011;2430;51.322;7.864;2023-05-07T10:55:42;2.40;;;1.37;;
4831;SDS011;2430;51.322;7.864;2023-05-07T10:58:23;2.90;;;1.43;;
4831;SDS011;2430;51.322;7.864;2023-05-07T11:00:56;1.50;;;1.40;;
4831;SDS011;2430;51.322;7.864;2023-05-07T11:03:24;2.50;;;1.40;;
4831;SDS011;2430;51.322;7.864;2023-05-07T11:06:08;1.77;;;1.50;;
4831;SDS011;2430;51.322;7.864;2023-05-07T11:14:07;1.70;;;1.60;;
4831;SDS011;2430;51.322;7.864;2023-05-07T11:16:33;8.43;;;1.53;;
4831;SDS011;2430;51.322;7.864;2023-05-07T11:19:04;2.67;;;1.70;;
4831;SDS011;2430;51.322;7.864;2023-05-07T11:21:36;2.70;;;1.50;;
4831;SDS011;2430;51.322;7.864;2023-05-07T11:24:03;3.67;;;1.60;;
4831;SDS011;2430;51.322;7.864;2023-05-07T11:26:30;1.60;;;1.40;;
4831;SDS011;2430;51.322;7.864;2023-05-07T11:28:57;1.80;;;1.70;;
4831;SDS011;2430;51.322;7.864;2023-05-07T11:31:25;2.17;;;1.63;;
4831;SDS011;2430;51.322;7.864;2023-05-07T11:33:53;1.70;;;1.60;;
4831;SDS011;2430;51.322;7.864;2023-05-07T11:36:22;4.53;;;1.83;;
4831;SDS011;2430;51.322;7.864;2023-05-07T11:38:49;3.30;;;1.93;;
4831;SDS011;2430;51.322;7.864;2023-05-07T11:41:15;1.90;;;1.70;;
4831;SDS011;2430;51.322;7.864;2023-05-07T11:43:55;2.30;;;2.10;;
4831;SDS011;2430;51.322;7.864;2023-05-07T11:46:22;4.10;;;1.90;;
4831;SDS011;2430;51.322;7.864;2023-05-07T11:48:48;2.50;;;1.93;;
4831;SDS011;2430;51.322;7.864;2023-05-07T11:51:18;3.33;;;2.10;;
4831;SDS011;2430;51.322;7.864;2023-05-07T11:53:45;5.20;;;2.00;;
4831;SDS011;2430;51.322;7.864;2023-05-07T11:56:13;2.80;;;1.80;;
4831;SDS011;2430;51.322;7.864;2023-05-07T11:58:40;2.80;;;2.27;;
4831;SDS011;2430;51.322;7.864;2023-05-07T12:01:07;6.93;;;1.93;;
4831;SDS011;2430;51.322;7.864;2023-05-07T12:03:34;1.73;;;1.63;;
4831;SDS011;2430;51.322;7.864;2023-05-07T12:06:01;2.40;;;1.83;;
4831;SDS011;2430;51.322;7.864;2023-05-07T12:08:27;2.03;;;1.80;;
4831;SDS011;2430;51.322;7.864;2023-05-07T12:10:55;2.10;;;1.60;;
4831;SDS011;2430;51.322;7.864;2023-05-07T12:13:22;8.80;;;1.80;;
4831;SDS011;2430;51.322;7.864;2023-05-07T12:15:50;2.80;;;2.03;;
4831;SDS011;2430;51.322;7.864;2023-05-07T12:18:16;4.07;;;2.20;;
4831;SDS011;2430;51.322;7.864;2023-05-07T12:20:42;3.80;;;2.10;;
4831;SDS011;2430;51.322;7.864;2023-05-07T12:23:10;3.20;;;1.80;;
4831;SDS011;2430;51.322;7.864;2023-05-07T12:25:36;1.70;;;1.60;;
4831;SDS011;2430;51.322;7.864;2023-05-07T12:28:04;4.30;;;2.10;;
4831;SDS011;2430;51.322;7.864;2023-05-07T12:30:30;1.70;;;1.50;;
4831;SDS011;2430;51.322;7.864;2023-05-07T12:32:57;5.23;;;2.20;;
4831;SDS011;2430;51.322;7.864;2023-05-07T12:35:27;3.80;;;2.30;;
4831;SDS011;2430;51.322;7.864;2023-05-07T12:37:56;2.70;;;2.10;;
4831;SDS011;2430;51.322;7.864;2023-05-07T12:40:24;2.90;;;2.40;;
4831;SDS011;2430;51.322;7.864;2023-05-07T12:42:52;3.80;;;2.40;;
4831;SDS011;2430;51.322;7.864;2023-05-07T12:45:20;2.90;;;2.00;;
4831;SDS011;2430;51.322;7.864;2023-05-07T12:47:47;4.20;;;2.83;;
4831;SDS011;2430;51.322;7.864;2023-05-07T12:50:13;2.33;;;2.07;;
4831;SDS011;2430;51.322;7.864;2023-05-07T12:52:40;3.30;;;2.43;;
4831;SDS011;2430;51.322;7.864;2023-05-07T12:55:07;4.00;;;2.30;;
4831;SDS011;2430;51.322;7.864;2023-05-07T12:57:37;4.03;;;2.53;;
4831;SDS011;2430;51.322;7.864;2023-05-07T13:00:04;9.87;;;2.77;;
4831;SDS011;2430;51.322;7.864;2023-05-07T13:02:33;2.33;;;2.10;;
4831;SDS011;2430;51.322;7.864;2023-05-07T13:04:59;6.83;;;2.87;;
4831;SDS011;2430;51.322;7.864;2023-05-07T13:07:26;2.80;;;2.43;;
4831;SDS011;2430;51.322;7.864;2023-05-07T13:09:52;5.27;;;2.60;;
4831;SDS011;2430;51.322;7.864;2023-05-07T13:12:18;3.27;;;2.60;;
4831;SDS011;2430;51.322;7.864;2023-05-07T13:14:44;3.07;;;2.40;;
4831;SDS011;2430;51.322;7.864;2023-05-07T13:17:11;5.10;;;2.67;;
4831;SDS011;2430;51.322;7.864;2023-05-07T13:19:38;3.07;;;2.80;;
4831;SDS011;2430;51.322;7.864;2023-05-07T13:22:05;3.97;;;2.40;;
4831;SDS011;2430;51.322;7.864;2023-05-07T13:24:31;2.67;;;2.47;;
4831;SDS011;2430;51.322;7.864;2023-05-07T13:26:57;4.33;;;2.80;;
4831;SDS011;2430;51.322;7.864;2023-05-07T13:29:24;6.30;;;2.77;;
4831;SDS011;2430;51.322;7.864;2023-05-07T13:31:54;4.20;;;2.97;;
4831;SDS011;2430;51.322;7.864;2023-05-07T13:34:21;3.50;;;2.83;;
4831;SDS011;2430;51.322;7.864;2023-05-07T13:36:48;4.47;;;3.10;;
4831;SDS011;2430;51.322;7.864;2023-05-07T13:39:15;3.50;;;3.20;;
4831;SDS011;2430;51.322;7.864;2023-05-07T13:41:41;3.20;;;2.77;;
4831;SDS011;2430;51.322;7.864;2023-05-07T13:44:07;5.17;;;3.43;;
4831;SDS011;2430;51.322;7.864;2023-05-07T13:46:34;3.30;;;3.00;;
4831;SDS011;2430;51.322;7.864;2023-05-07T13:49:00;4.40;;;2.97;;
4831;SDS011;2430;51.322;7.864;2023-05-07T13:51:27;5.40;;;3.30;;
4831;SDS011;2430;51.322;7.864;2023-05-07T13:53:54;3.60;;;3.10;;
4831;SDS011;2430;51.322;7.864;2023-05-07T13:56:21;3.80;;;3.40;;
4831;SDS011;2430;51.322;7.864;2023-05-07T13:58:48;3.93;;;2.67;;
4831;SDS011;2430;51.322;7.864;2023-05-07T14:01:14;4.10;;;3.40;;
4831;SDS011;2430;51.322;7.864;2023-05-07T14:03:41;4.40;;;3.10;;
4831;SDS011;2430;51.322;7.864;2023-05-07T14:06:07;3.37;;;3.03;;
4831;SDS011;2430;51.322;7.864;2023-05-07T14:08:33;5.43;;;2.90;;
4831;SDS011;2430;51.322;7.864;2023-05-07T14:11:01;4.30;;;2.83;;
4831;SDS011;2430;51.322;7.864;2023-05-07T14:13:28;6.43;;;3.33;;
4831;SDS011;2430;51.322;7.864;2023-05-07T14:15:55;4.70;;;3.20;;
4831;SDS011;2430;51.322;7.864;2023-05-07T14:18:22;3.00;;;2.63;;
4831;SDS011;2430;51.322;7.864;2023-05-07T14:20:48;3.40;;;2.80;;
4831;SDS011;2430;51.322;7.864;2023-05-07T14:23:14;4.27;;;2.40;;
4831;SDS011;2430;51.322;7.864;2023-05-07T14:25:42;3.00;;;2.70;;
4831;SDS011;2430;51.322;7.864;2023-05-07T14:28:10;2.43;;;2.23;;
4831;SDS011;2430;51.322;7.864;2023-05-07T14:30:36;3.50;;;2.47;;
4831;SDS011;2430;51.322;7.864;2023-05-07T14:33:03;9.60;;;2.60;;
4831;SDS011;2430;51.322;7.864;2023-05-07T14:35:29;3.17;;;2.87;;
4831;SDS011;2430;51.322;7.864;2023-05-07T14:37:55;3.30;;;2.70;;
4831;SDS011;2430;51.322;7.864;2023-05-07T14:40:22;2.50;;;2.23;;
4831;SDS011;2430;51.322;7.864;2023-05-07T14:42:48;2.50;;;2.30;;
4831;SDS011;2430;51.322;7.864;2023-05-07T14:45:16;3.60;;;2.90;;
4831;SDS011;2430;51.322;7.864;2023-05-07T14:47:42;3.40;;;2.50;;
4831;SDS011;2430;51.322;7.864;2023-05-07T14:50:08;2.40;;;2.20;;
4831;SDS011;2430;51.322;7.864;2023-05-07T14:52:35;4.60;;;2.70;;
4831;SDS011;2430;51.322;7.864;2023-05-07T14:55:01;2.83;;;2.37;;
4831;SDS011;2430;51.322;7.864;2023-05-07T14:57:28;2.87;;;2.57;;
4831;SDS011;2430;51.322;7.864;2023-05-07T14:59:54;7.60;;;2.47;;
4831;SDS011;2430;51.322;7.864;2023-05-07T15:02:22;2.43;;;2.10;;
4831;SDS011;2430;51.322;7.864;2023-05-07T15:04:48;2.80;;;2.27;;
4831;SDS011;2430;51.322;7.864;2023-05-07T15:07:15;2.90;;;2.10;;
4831;SDS011;2430;51.322;7.864;2023-05-07T15:09:42;2.80;;;2.40;;
4831;SDS011;2430;51.322;7.864;2023-05-07T15:12:08;4.10;;;2.60;;
4831;SDS011;2430;51.322;7.864;2023-05-07T15:14:36;7.33;;;2.40;;
4831;SDS011;2430;51.322;7.864;2023-05-07T15:17:02;3.00;;;2.13;;
4831;SDS011;2430;51.322;7.864;2023-05-07T15:19:29;3.83;;;2.30;;
4831;SDS011;2430;51.322;7.864;2023-05-07T15:21:56;3.97;;;2.23;;